createdAt,value
2018-06-30T00:00:42.798Z,16.40
2018-06-30T00:03:12.854Z,16.30
2018-06-30T00:05:43.107Z,16.30
2018-06-30T00:08:13.299Z,16.20
2018-06-30T00:10:43.331Z,16.30
2018-06-30T00:13:13.497Z,16.30
2018-06-30T00:15:43.539Z,16.30
2018-06-30T00:18:13.613Z,16.30
2018-06-30T00:20:43.641Z,16.20
2018-06-30T00:23:13.673Z,16.30
2018-06-30T00:25:43.685Z,16.20
2018-06-30T00:28:13.801Z,16.20
2018-06-30T00:30:43.865Z,16.20
2018-06-30T00:35:43.546Z,16.20
2018-06-30T00:38:13.641Z,16.20
2018-06-30T00:40:43.617Z,16.20
2018-06-30T00:43:13.695Z,16.20
2018-06-30T00:45:43.753Z,16.10
2018-06-30T00:48:13.901Z,16.10
2018-06-30T00:50:44.291Z,16.10
2018-06-30T00:53:14.491Z,16.00
2018-06-30T00:55:44.547Z,16.00
2018-06-30T00:58:14.604Z,16.00
2018-06-30T01:00:44.651Z,16.00
2018-06-30T01:03:14.774Z,16.00
2018-06-30T01:08:14.459Z,16.00
2018-06-30T01:10:45.366Z,16.00
2018-06-30T01:13:15.402Z,15.90
2018-06-30T01:15:45.415Z,15.90
2018-06-30T01:18:15.446Z,15.90
2018-06-30T01:20:45.476Z,15.90
2018-06-30T01:23:15.626Z,15.90
2018-06-30T01:25:45.643Z,15.90
2018-06-30T01:28:15.683Z,15.90
2018-06-30T01:30:45.689Z,15.90
2018-06-30T01:33:15.696Z,15.90
2018-06-30T01:35:45.739Z,15.80
2018-06-30T01:38:15.790Z,15.80
2018-06-30T01:40:45.827Z,15.80
2018-06-30T01:43:15.856Z,15.80
2018-06-30T01:45:45.891Z,15.80
2018-06-30T01:48:15.892Z,15.80
2018-06-30T01:50:45.919Z,15.80
2018-06-30T01:53:15.975Z,15.80
2018-06-30T01:55:46.142Z,15.80
2018-06-30T01:58:16.173Z,15.80
2018-06-30T02:00:46.194Z,15.80
2018-06-30T02:03:16.223Z,15.80
2018-06-30T02:05:46.256Z,15.80
2018-06-30T02:08:16.524Z,15.70
2018-06-30T02:10:46.562Z,15.70
2018-06-30T02:13:16.645Z,15.70
2018-06-30T02:15:46.678Z,15.70
2018-06-30T02:18:16.734Z,15.70
2018-06-30T02:20:46.754Z,15.70
2018-06-30T02:23:16.888Z,15.60
2018-06-30T02:25:46.900Z,15.60
2018-06-30T02:28:16.930Z,15.60
2018-06-30T02:30:47.011Z,15.50
2018-06-30T02:33:17.027Z,15.50
2018-06-30T02:35:47.056Z,15.50
2018-06-30T02:40:46.850Z,15.50
2018-06-30T02:43:16.836Z,15.50
2018-06-30T02:45:46.903Z,15.50
2018-06-30T02:48:16.921Z,15.40
2018-06-30T02:50:46.987Z,15.40
2018-06-30T02:53:17.004Z,15.30
2018-06-30T02:55:47.043Z,15.30
2018-06-30T02:58:17.096Z,15.30
2018-06-30T03:00:47.221Z,15.30
2018-06-30T03:03:17.234Z,15.20
2018-06-30T03:05:47.268Z,15.30
2018-06-30T03:08:17.382Z,15.30
2018-06-30T03:10:47.502Z,15.30
2018-06-30T03:13:17.584Z,15.20
2018-06-30T03:15:47.664Z,15.20
2018-06-30T03:18:17.749Z,15.10
2018-06-30T03:20:47.786Z,15.10
2018-06-30T03:23:17.843Z,15.10
2018-06-30T03:28:17.606Z,15.10
2018-06-30T03:30:47.752Z,15.10
2018-06-30T03:33:17.765Z,15.10
2018-06-30T03:35:47.812Z,15.10
2018-06-30T03:38:17.841Z,15.00
2018-06-30T03:40:47.925Z,15.00
2018-06-30T03:43:17.957Z,15.00
2018-06-30T03:45:48.031Z,14.90
2018-06-30T03:48:18.040Z,15.00
2018-06-30T03:50:48.105Z,14.90
2018-06-30T03:53:18.122Z,14.90
2018-06-30T03:55:48.274Z,14.80
2018-06-30T03:58:18.287Z,14.90
2018-06-30T04:00:48.318Z,14.90
2018-06-30T04:03:18.527Z,14.80
2018-06-30T04:05:48.576Z,14.80
2018-06-30T04:08:18.635Z,14.80
2018-06-30T04:10:48.695Z,14.80
2018-06-30T04:13:18.729Z,14.80
2018-06-30T04:15:48.834Z,14.80
2018-06-30T04:18:18.856Z,14.90
2018-06-30T04:20:48.939Z,14.90
2018-06-30T04:23:18.957Z,14.90
2018-06-30T04:28:18.594Z,15.00
2018-06-30T04:30:48.639Z,15.00
2018-06-30T04:33:18.642Z,15.10
2018-06-30T04:35:48.656Z,15.20
2018-06-30T04:38:18.709Z,15.30
2018-06-30T04:40:48.807Z,15.40
2018-06-30T04:43:18.839Z,15.50
2018-06-30T04:45:48.936Z,15.60
2018-06-30T04:48:19.022Z,15.70
2018-06-30T04:50:49.081Z,15.80
2018-06-30T04:53:19.080Z,16.00
2018-06-30T04:55:49.117Z,16.20
2018-06-30T04:58:19.366Z,16.30
2018-06-30T05:00:49.392Z,16.40
2018-06-30T05:05:49.053Z,16.70
2018-06-30T05:08:19.221Z,16.80
2018-06-30T05:10:49.259Z,17.10
2018-06-30T05:15:48.963Z,17.50
2018-06-30T05:18:19.011Z,17.80
2018-06-30T05:20:49.080Z,18.00
2018-06-30T05:23:19.074Z,18.20
2018-06-30T05:25:49.142Z,18.30
2018-06-30T05:28:19.202Z,18.50
2018-06-30T05:30:49.222Z,18.60
2018-06-30T05:35:48.925Z,18.80
2018-06-30T05:38:19.006Z,18.80
2018-06-30T05:40:49.379Z,18.90
2018-06-30T05:43:19.526Z,19.00
2018-06-30T05:48:19.225Z,19.40
2018-06-30T05:50:49.286Z,19.60
2018-06-30T05:55:49.049Z,19.70
2018-06-30T05:58:19.108Z,19.80
2018-06-30T06:00:49.208Z,19.90
2018-06-30T06:03:19.287Z,20.10
2018-06-30T06:08:19.223Z,20.30
2018-06-30T06:15:48.604Z,20.70
2018-06-30T06:18:18.678Z,20.70
2018-06-30T06:20:48.714Z,20.90
2018-06-30T06:23:18.806Z,21.00
2018-06-30T06:25:48.841Z,21.10
2018-06-30T06:30:48.610Z,21.30
2018-06-30T06:33:18.684Z,21.40
2018-06-30T06:35:48.763Z,21.50
2018-06-30T06:38:18.833Z,21.70
2018-06-30T06:40:49.406Z,21.80
2018-06-30T06:43:20.500Z,21.90
2018-06-30T06:45:50.647Z,21.90
2018-06-30T06:48:20.761Z,21.90
2018-06-30T06:50:51.683Z,21.90
2018-06-30T06:53:22.159Z,21.90
2018-06-30T06:55:52.255Z,22.00
2018-06-30T06:58:22.362Z,22.10
2018-06-30T07:00:52.480Z,22.20
2018-06-30T07:03:22.594Z,22.30
2018-06-30T07:05:52.707Z,22.20
2018-06-30T07:08:23.064Z,22.20
2018-06-30T07:10:53.226Z,22.20
2018-06-30T07:13:23.360Z,22.30
2018-06-30T07:15:53.432Z,22.40
2018-06-30T07:18:23.552Z,22.40
2018-06-30T07:20:53.646Z,22.50
2018-06-30T07:23:23.767Z,22.50
2018-06-30T07:25:53.953Z,22.50
2018-06-30T07:28:24.059Z,22.70
2018-06-30T07:30:54.233Z,22.80
2018-06-30T07:33:24.389Z,22.80
2018-06-30T07:35:54.506Z,22.80
2018-06-30T07:38:24.631Z,22.80
2018-06-30T07:40:54.791Z,22.90
2018-06-30T07:43:25.151Z,23.00
2018-06-30T07:45:55.191Z,23.10
2018-06-30T07:48:25.331Z,23.00
2018-06-30T07:50:56.306Z,23.20
2018-06-30T07:53:26.387Z,23.30
2018-06-30T07:55:56.471Z,23.40
2018-06-30T07:58:26.595Z,23.40
2018-06-30T08:00:56.783Z,23.40
2018-06-30T08:03:26.883Z,23.40
2018-06-30T08:05:56.994Z,23.50
2018-06-30T08:08:27.118Z,23.60
2018-06-30T08:10:57.211Z,23.70
2018-06-30T08:13:27.318Z,23.60
2018-06-30T08:15:57.397Z,23.70
2018-06-30T08:18:27.552Z,23.80
2018-06-30T08:20:57.707Z,23.90
2018-06-30T08:23:27.905Z,24.10
2018-06-30T08:25:58.006Z,24.30
2018-06-30T08:28:28.150Z,24.20
2018-06-30T08:30:58.227Z,24.10
2018-06-30T08:33:28.439Z,24.30
2018-06-30T08:35:58.547Z,24.30
2018-06-30T08:38:28.667Z,24.30
2018-06-30T08:40:58.808Z,24.40
2018-06-30T08:43:28.941Z,24.40
2018-06-30T08:45:59.042Z,24.40
2018-06-30T08:48:29.152Z,24.40
2018-06-30T08:53:28.954Z,24.60
2018-06-30T08:55:59.111Z,24.40
2018-06-30T09:00:58.864Z,24.80
2018-06-30T09:03:29.012Z,24.80
2018-06-30T09:08:28.862Z,24.80
2018-06-30T09:10:59.006Z,24.90
2018-06-30T09:13:29.080Z,24.80
2018-06-30T09:15:59.153Z,24.90
2018-06-30T09:18:29.174Z,25.00
2018-06-30T09:20:59.343Z,25.20
2018-06-30T09:23:29.399Z,25.30
2018-06-30T09:25:59.506Z,25.40
2018-06-30T09:28:29.603Z,25.50
2018-06-30T09:30:59.657Z,25.60
2018-06-30T09:33:29.740Z,25.60
2018-06-30T09:36:00.013Z,25.50
2018-06-30T09:38:30.098Z,25.70
2018-06-30T09:41:00.217Z,25.70
2018-06-30T09:43:30.327Z,25.80
2018-06-30T09:46:00.470Z,25.70
2018-06-30T09:48:30.564Z,25.90
2018-06-30T09:51:00.694Z,26.00
2018-06-30T09:53:30.820Z,26.10
2018-06-30T09:58:30.527Z,26.30
2018-06-30T10:01:05.617Z,26.30
2018-06-30T10:03:36.308Z,26.40
2018-06-30T10:06:06.845Z,26.40
2018-06-30T10:11:06.767Z,26.30
2018-06-30T10:13:36.842Z,26.50
2018-06-30T10:16:07.074Z,26.60
2018-06-30T10:18:37.140Z,26.40
2018-06-30T10:21:07.302Z,26.30
2018-06-30T10:23:37.365Z,26.30
2018-06-30T10:26:07.611Z,26.40
2018-06-30T10:28:37.702Z,26.60
2018-06-30T10:31:07.822Z,26.70
2018-06-30T10:33:37.885Z,26.80
2018-06-30T10:36:07.985Z,26.70
2018-06-30T10:38:38.053Z,26.60
2018-06-30T10:41:08.376Z,26.70
2018-06-30T10:43:38.495Z,26.50
2018-06-30T10:48:38.332Z,26.80
2018-06-30T10:51:08.580Z,26.70
2018-06-30T10:53:39.030Z,26.80
2018-06-30T10:56:09.230Z,26.90
2018-06-30T10:58:39.363Z,27.00
2018-06-30T11:01:09.556Z,27.20
2018-06-30T11:03:39.655Z,27.30
2018-06-30T11:06:09.792Z,27.30
2018-06-30T11:08:39.930Z,27.40
2018-06-30T11:13:39.806Z,27.20
2018-06-30T11:16:09.957Z,27.00
2018-06-30T11:18:40.088Z,27.10
2018-06-30T11:21:10.191Z,27.20
2018-06-30T11:23:40.359Z,27.30
2018-06-30T11:26:10.472Z,27.40
2018-06-30T11:28:40.688Z,27.50
2018-06-30T11:31:10.878Z,27.40
2018-06-30T11:33:41.014Z,27.50
2018-06-30T11:36:11.112Z,27.60
2018-06-30T11:38:41.250Z,27.50
2018-06-30T11:41:11.369Z,27.20
2018-06-30T11:43:41.467Z,27.20
2018-06-30T11:46:12.059Z,27.30
2018-06-30T11:48:42.211Z,27.30
2018-06-30T11:51:12.367Z,27.30
2018-06-30T11:53:42.550Z,27.30
2018-06-30T11:56:13.173Z,27.30
2018-06-30T11:58:43.267Z,27.40
2018-06-30T12:01:13.331Z,27.50
2018-06-30T12:03:43.461Z,27.60
2018-06-30T12:06:13.620Z,27.50
2018-06-30T12:08:43.779Z,27.20
2018-06-30T12:11:13.871Z,27.40
2018-06-30T12:13:44.018Z,27.40
2018-06-30T12:16:14.082Z,27.50
2018-06-30T12:18:44.245Z,27.60
2018-06-30T12:21:14.398Z,27.70
2018-06-30T12:23:44.491Z,27.70
2018-06-30T12:26:14.599Z,27.80
2018-06-30T12:28:44.658Z,27.90
2018-06-30T12:31:14.751Z,27.90
2018-06-30T12:33:45.563Z,27.70
2018-06-30T12:36:15.661Z,27.80
2018-06-30T12:38:45.773Z,27.50
2018-06-30T12:41:15.964Z,27.30
2018-06-30T12:43:46.110Z,27.40
2018-06-30T12:46:18.018Z,27.30
2018-06-30T12:48:48.125Z,27.30
2018-06-30T12:51:18.298Z,27.50
2018-06-30T12:53:48.444Z,27.60
2018-06-30T12:56:18.513Z,27.70
2018-06-30T12:58:48.658Z,27.60
2018-06-30T13:01:18.776Z,27.80
2018-06-30T13:03:49.016Z,27.60
2018-06-30T13:06:19.048Z,27.70
2018-06-30T13:08:49.214Z,27.50
2018-06-30T13:11:19.356Z,27.80
2018-06-30T13:13:49.405Z,27.90
2018-06-30T13:16:19.457Z,27.80
2018-06-30T13:18:49.618Z,27.90
2018-06-30T13:21:19.687Z,28.00
2018-06-30T13:23:49.871Z,27.90
2018-06-30T13:26:19.977Z,27.90
2018-06-30T13:31:19.800Z,27.80
2018-06-30T13:33:49.957Z,27.90
2018-06-30T13:36:20.060Z,28.10
2018-06-30T13:38:50.195Z,28.20
2018-06-30T13:41:20.325Z,28.10
2018-06-30T13:43:50.485Z,28.20
2018-06-30T13:46:20.724Z,28.30
2018-06-30T13:48:50.843Z,28.40
2018-06-30T13:51:21.252Z,28.20
2018-06-30T13:53:51.328Z,28.10
2018-06-30T13:56:21.390Z,28.30
2018-06-30T13:58:51.501Z,28.30
2018-06-30T14:01:21.571Z,28.40
2018-06-30T14:03:51.798Z,28.40
2018-06-30T14:06:22.071Z,28.50
2018-06-30T14:08:52.203Z,28.60
2018-06-30T14:11:22.330Z,28.60
2018-06-30T14:13:52.717Z,28.60
2018-06-30T14:16:22.955Z,28.50
2018-06-30T14:18:53.061Z,28.50
2018-06-30T14:21:23.152Z,28.60
2018-06-30T14:23:53.282Z,28.50
2018-06-30T14:26:23.336Z,28.60
2018-06-30T14:31:23.336Z,28.50
2018-06-30T14:33:53.509Z,28.60
2018-06-30T14:36:23.686Z,28.20
2018-06-30T14:38:53.816Z,28.30
2018-06-30T14:41:23.890Z,28.10
2018-06-30T14:43:54.055Z,28.10
2018-06-30T14:46:24.197Z,28.10
2018-06-30T14:48:54.262Z,28.20
2018-06-30T14:51:24.468Z,28.20
2018-06-30T14:56:24.230Z,27.90
2018-06-30T14:58:54.560Z,27.90
2018-06-30T15:01:24.794Z,27.70
2018-06-30T15:03:54.890Z,27.80
2018-06-30T15:06:25.084Z,27.80
2018-06-30T15:08:55.191Z,27.60
2018-06-30T15:11:25.364Z,27.30
2018-06-30T15:18:55.500Z,27.20
2018-06-30T15:21:25.659Z,27.20
2018-06-30T15:23:55.727Z,27.20
2018-06-30T15:26:25.782Z,27.20
2018-06-30T15:31:25.568Z,27.00
2018-06-30T15:33:55.687Z,27.10
2018-06-30T15:36:25.909Z,27.20
2018-06-30T15:38:56.010Z,27.20
2018-06-30T15:41:26.092Z,27.00
2018-06-30T15:43:56.228Z,26.80
2018-06-30T15:46:26.436Z,26.70
2018-06-30T15:48:56.620Z,26.60
2018-06-30T15:51:27.095Z,26.60
2018-06-30T15:53:57.267Z,26.70
2018-06-30T15:56:27.482Z,26.70
2018-06-30T15:58:57.941Z,26.70
2018-06-30T16:01:27.971Z,26.70
2018-06-30T16:03:58.061Z,26.70
2018-06-30T16:08:57.868Z,26.70
2018-06-30T16:11:27.941Z,26.60
2018-06-30T16:13:58.104Z,26.40
2018-06-30T16:16:30.100Z,26.30
2018-06-30T16:19:00.160Z,26.40
2018-06-30T16:21:30.262Z,26.30
2018-06-30T16:24:00.313Z,26.20
2018-06-30T16:26:30.553Z,26.20
2018-06-30T16:29:00.618Z,26.10
2018-06-30T16:34:00.400Z,25.90
2018-06-30T16:36:30.838Z,25.80
2018-06-30T16:39:01.023Z,25.60
2018-06-30T16:41:31.156Z,25.50
2018-06-30T16:44:01.193Z,25.50
2018-06-30T16:46:31.366Z,25.50
2018-06-30T16:49:01.547Z,25.40
2018-06-30T16:51:32.079Z,25.20
2018-06-30T16:54:02.212Z,25.20
2018-06-30T16:56:32.337Z,25.10
2018-06-30T16:59:02.448Z,25.00
2018-06-30T17:01:32.711Z,25.10
2018-06-30T17:04:02.881Z,25.10
2018-06-30T17:06:32.971Z,25.10
2018-06-30T17:09:03.149Z,25.00
2018-06-30T17:11:33.302Z,24.80
2018-06-30T17:14:03.387Z,24.70
2018-06-30T17:16:33.560Z,24.70
2018-06-30T17:19:03.634Z,24.80
2018-06-30T17:21:34.638Z,24.80
2018-06-30T17:24:05.051Z,24.80
2018-06-30T17:26:35.271Z,24.70
2018-06-30T17:29:05.416Z,24.70
2018-06-30T17:31:35.522Z,24.50
2018-06-30T17:36:35.842Z,24.30
2018-06-30T17:39:09.651Z,24.40
2018-06-30T17:41:40.433Z,24.20
2018-06-30T17:44:10.916Z,24.20
2018-06-30T17:46:41.104Z,24.20
2018-06-30T17:49:11.278Z,24.20
2018-06-30T17:51:41.421Z,24.10
2018-06-30T17:54:11.677Z,24.00
2018-06-30T17:56:41.878Z,24.00
2018-06-30T17:59:12.096Z,23.90
2018-06-30T18:01:44.193Z,23.80
2018-06-30T18:04:14.273Z,23.70
2018-06-30T18:06:44.479Z,23.60
2018-06-30T18:09:14.544Z,23.60
2018-06-30T18:11:44.635Z,23.60
2018-06-30T18:14:15.717Z,23.50
2018-06-30T18:16:45.828Z,23.50
2018-06-30T18:19:15.909Z,23.30
2018-06-30T18:21:45.976Z,23.40
2018-06-30T18:24:16.022Z,23.30
2018-06-30T18:26:46.105Z,23.10
2018-06-30T18:29:16.153Z,23.10
2018-06-30T18:31:46.299Z,22.90
2018-06-30T18:34:16.319Z,22.90
2018-06-30T18:36:46.416Z,22.90
2018-06-30T18:39:16.518Z,22.60
2018-06-30T18:41:46.580Z,22.70
2018-06-30T18:44:16.644Z,22.60
2018-06-30T18:46:46.775Z,22.50
2018-06-30T18:49:16.824Z,22.60
2018-06-30T18:51:47.001Z,22.60
2018-06-30T18:54:17.095Z,22.50
2018-06-30T18:56:47.196Z,22.40
2018-06-30T18:59:17.326Z,22.40
2018-06-30T19:01:47.517Z,22.30
2018-06-30T19:04:17.582Z,22.00
2018-06-30T19:06:47.630Z,22.00
2018-06-30T19:09:17.696Z,22.00
2018-06-30T19:11:47.745Z,22.00
2018-06-30T19:14:17.779Z,21.90
2018-06-30T19:16:47.991Z,22.00
2018-06-30T19:19:18.026Z,21.80
2018-06-30T19:21:48.056Z,21.80
2018-06-30T19:24:18.090Z,21.80
2018-06-30T19:26:48.176Z,21.70
2018-06-30T19:29:18.270Z,21.60
2018-06-30T19:31:48.323Z,21.60
2018-06-30T19:34:18.364Z,21.50
2018-06-30T19:36:48.542Z,21.50
2018-06-30T19:39:18.575Z,21.40
2018-06-30T19:41:49.635Z,21.30
2018-06-30T19:44:19.720Z,21.30
2018-06-30T19:46:49.775Z,21.20
2018-06-30T19:49:19.840Z,21.00
2018-06-30T19:51:49.898Z,21.00
2018-06-30T19:54:19.960Z,20.90
2018-06-30T19:56:49.960Z,20.80
2018-06-30T19:59:20.149Z,20.70
2018-06-30T20:01:50.276Z,20.70
2018-06-30T20:04:20.344Z,20.70
2018-06-30T20:06:50.533Z,20.50
2018-06-30T20:09:20.641Z,20.40
2018-06-30T20:11:50.893Z,20.30
2018-06-30T20:14:20.931Z,20.30
2018-06-30T20:16:51.082Z,20.30
2018-06-30T20:19:21.143Z,20.20
2018-06-30T20:21:51.189Z,20.30
2018-06-30T20:24:21.310Z,20.20
2018-06-30T20:26:51.429Z,20.30
2018-06-30T20:29:21.726Z,20.30
2018-06-30T20:31:51.792Z,20.10
2018-06-30T20:34:21.904Z,20.00
2018-06-30T20:36:52.046Z,20.00
2018-06-30T20:39:22.158Z,19.80
2018-06-30T20:41:52.236Z,19.80
2018-06-30T20:44:22.369Z,19.80
2018-06-30T20:46:52.472Z,19.80
2018-06-30T20:49:22.611Z,19.80
2018-06-30T20:51:52.719Z,19.80
2018-06-30T20:54:22.859Z,19.70
2018-06-30T20:56:52.995Z,19.60
2018-06-30T20:59:23.219Z,19.60
2018-06-30T21:01:53.347Z,19.60
2018-06-30T21:04:23.569Z,19.50
2018-06-30T21:09:23.390Z,19.50
2018-06-30T21:11:53.463Z,19.30
2018-06-30T21:14:23.649Z,19.40
2018-06-30T21:16:53.847Z,19.20
2018-06-30T21:19:23.921Z,19.20
2018-06-30T21:21:54.182Z,19.20
2018-06-30T21:24:24.371Z,19.10
2018-06-30T21:26:54.478Z,19.10
2018-06-30T21:29:24.587Z,19.20
2018-06-30T21:31:54.760Z,19.10
2018-06-30T21:34:25.122Z,19.00
2018-06-30T21:36:55.648Z,18.90
2018-06-30T21:39:25.720Z,18.80
2018-06-30T21:41:55.910Z,18.70
2018-06-30T21:44:26.032Z,18.70
2018-06-30T21:46:56.156Z,18.70
2018-06-30T21:49:26.216Z,18.70
2018-06-30T21:54:26.093Z,18.40
2018-06-30T21:56:56.290Z,18.30
2018-06-30T21:59:26.387Z,18.30
2018-06-30T22:01:56.490Z,18.40
2018-06-30T22:04:26.490Z,18.30
2018-06-30T22:06:56.690Z,18.20
2018-06-30T22:09:26.807Z,18.20
2018-06-30T22:11:56.902Z,18.20
2018-06-30T22:14:27.536Z,18.20
2018-06-30T22:19:27.395Z,18.00
2018-06-30T22:21:57.526Z,18.00
2018-06-30T22:24:27.670Z,17.90
2018-06-30T22:26:57.909Z,17.80
2018-06-30T22:29:28.011Z,17.80
2018-06-30T22:31:58.316Z,17.80
2018-06-30T22:34:28.362Z,17.70
2018-06-30T22:36:58.415Z,17.70
2018-06-30T22:40:37.262Z,17.70
2018-06-30T22:43:07.383Z,17.80
2018-06-30T22:45:37.527Z,17.70
2018-06-30T22:48:07.703Z,17.60
2018-06-30T22:50:37.804Z,17.50
2018-06-30T22:53:07.979Z,17.50
2018-06-30T22:55:38.067Z,17.40
2018-06-30T22:58:08.262Z,17.40
2018-06-30T23:00:38.390Z,17.30
2018-06-30T23:03:11.939Z,17.20
2018-06-30T23:05:42.838Z,17.10
2018-06-30T23:08:13.036Z,17.00
2018-06-30T23:10:43.138Z,16.90
2018-06-30T23:13:13.400Z,16.90
2018-06-30T23:15:43.522Z,16.90
2018-06-30T23:18:13.696Z,16.90
2018-06-30T23:20:43.915Z,16.80
2018-06-30T23:23:14.032Z,16.80
2018-06-30T23:25:44.162Z,16.80
2018-06-30T23:28:14.581Z,16.80
2018-06-30T23:30:44.707Z,16.60
2018-06-30T23:35:44.611Z,16.60
2018-06-30T23:38:14.706Z,16.60
2018-06-30T23:40:44.761Z,16.60
2018-06-30T23:43:14.933Z,16.50
2018-06-30T23:45:45.028Z,16.60
2018-06-30T23:48:15.128Z,16.50
2018-06-30T23:50:45.213Z,16.50
2018-06-30T23:53:15.310Z,16.40
2018-06-30T23:55:45.434Z,16.30
